Time;durP1;ratioP1;P1;durP2;ratioP2;P2;SDS_P1;SDS_P2;PMS_P1;PMS_P2;Temp;Humidity;BMP_temperature;BMP_pressure;BME280_temperature;BME280_humidity;BME280_pressure;Samples;Min_cycle;Max_cycle;Signal;HPM_P1;HPM_P2
2022/11/06 00:00:22;;;;;;;1.58;1.48;;;;;;;;;;4979099;28;20093;-24
2022/11/06 00:02:48;;;;;;;2.63;2.08;;;;;;;;;;4978731;28;20037;-23
2022/11/06 00:07:59;;;;;;;2.63;1.67;;;;;;;;;;4978807;28;20049;-22
2022/11/06 00:10:25;;;;;;;3.70;2.13;;;;;;;;;;4978681;28;20027;-22
2022/11/06 00:12:51;;;;;;;1.70;1.60;;;;;;;;;;4978385;28;20110;-23
2022/11/06 00:15:18;;;;;;;1.65;1.50;;;;;;;;;;4978614;28;20086;-24
2022/11/06 00:17:44;;;;;;;2.97;2.10;;;;;;;;;;4961464;28;20042;-23
2022/11/06 00:20:10;;;;;;;2.63;1.90;;;;;;;;;;4978454;28;20023;-23
2022/11/06 00:22:37;;;;;;;1.98;1.77;;;;;;;;;;4978309;28;20026;-22
2022/11/06 00:25:04;;;;;;;2.65;1.80;;;;;;;;;;4978694;28;20034;-22
2022/11/06 00:27:31;;;;;;;2.83;1.85;;;;;;;;;;4978373;28;20035;-22
2022/11/06 00:29:57;;;;;;;2.67;1.67;;;;;;;;;;4978313;28;20023;-24
2022/11/06 00:32:23;;;;;;;2.72;2.10;;;;;;;;;;4978373;28;20042;-22
2022/11/06 00:34:49;;;;;;;1.92;1.67;;;;;;;;;;4978227;28;20031;-23
2022/11/06 00:37:15;;;;;;;1.92;1.77;;;;;;;;;;4978197;28;20029;-22
2022/11/06 00:39:41;;;;;;;1.48;1.33;;;;;;;;;;4978097;28;20109;-22
2022/11/06 00:42:08;;;;;;;2.17;1.98;;;;;;;;;;4978297;28;20022;-22
2022/11/06 00:44:34;;;;;;;1.95;1.85;;;;;;;;;;4978313;28;20034;-22
2022/11/06 00:47:00;;;;;;;2.58;1.92;;;;;;;;;;4960939;28;20037;-27
2022/11/06 00:49:27;;;;;;;1.85;1.70;;;;;;;;;;4960965;28;20550;-22
2022/11/06 00:51:53;;;;;;;2.05;1.70;;;;;;;;;;4978026;28;20054;-23
2022/11/06 00:54:19;;;;;;;2.08;1.42;;;;;;;;;;4977961;28;20461;-25
2022/11/06 00:56:45;;;;;;;1.83;1.70;;;;;;;;;;4977795;28;20030;-22
2022/11/06 00:59:12;;;;;;;2.00;1.70;;;;;;;;;;4977709;28;20497;-22
2022/11/06 01:01:43;;;;;;;3.40;2.30;;;;;;;;;;4978052;28;20023;-24
2022/11/06 01:04:22;;;;;;;2.13;1.60;;;;;;;;;;4977818;28;20071;-22
2022/11/06 01:06:49;;;;;;;1.80;1.70;;;;;;;;;;4977600;28;20085;-22
2022/11/06 01:09:17;;;;;;;2.08;1.60;;;;;;;;;;4976709;28;20041;-23
2022/11/06 01:11:44;;;;;;;2.00;1.80;;;;;;;;;;4977541;28;20118;-22
2022/11/06 01:14:12;;;;;;;2.17;1.73;;;;;;;;;;4977802;28;20039;-22
2022/11/06 01:16:39;;;;;;;2.63;2.10;;;;;;;;;;4977393;28;20031;-22
2022/11/06 01:19:05;;;;;;;1.60;1.50;;;;;;;;;;4977690;28;20027;-22
2022/11/06 01:21:33;;;;;;;1.60;1.17;;;;;;;;;;4977395;28;20358;-24
2022/11/06 01:24:01;;;;;;;4.07;1.95;;;;;;;;;;4977242;28;20110;-23
2022/11/06 01:26:28;;;;;;;2.92;1.80;;;;;;;;;;4977323;28;20031;-22
2022/11/06 01:28:55;;;;;;;2.22;1.58;;;;;;;;;;4977177;28;20034;-23
2022/11/06 01:31:23;;;;;;;1.52;1.42;;;;;;;;;;4977194;28;20109;-23
2022/11/06 01:33:49;;;;;;;2.00;1.50;;;;;;;;;;4977064;28;20041;-22
2022/11/06 01:36:17;;;;;;;2.40;1.67;;;;;;;;;;4977112;28;20042;-22
2022/11/06 01:38:44;;;;;;;2.20;2.00;;;;;;;;;;4977317;28;20521;-22
2022/11/06 01:41:14;;;;;;;1.95;1.75;;;;;;;;;;4976994;28;20034;-22
2022/11/06 01:43:46;;;;;;;1.45;1.35;;;;;;;;;;4976789;28;20495;-22
2022/11/06 01:46:12;;;;;;;2.13;1.92;;;;;;;;;;4976926;28;20031;-22
2022/11/06 01:48:39;;;;;;;3.20;2.50;;;;;;;;;;4976836;28;20031;-22
2022/11/06 01:51:06;;;;;;;2.55;2.13;;;;;;;;;;4977060;28;20049;-22
2022/11/06 01:53:33;;;;;;;3.20;1.90;;;;;;;;;;4976628;28;20030;-22
2022/11/06 01:56:00;;;;;;;2.35;1.70;;;;;;;;;;4976742;28;20399;-22
2022/11/06 01:58:27;;;;;;;3.40;1.60;;;;;;;;;;4976973;28;20402;-22
2022/11/06 02:00:53;;;;;;;2.78;1.95;;;;;;;;;;4977184;28;20027;-23
2022/11/06 02:03:20;;;;;;;1.52;1.33;;;;;;;;;;4976767;28;20054;-22
2022/11/06 02:05:46;;;;;;;3.47;1.58;;;;;;;;;;4976585;28;20026;-22
2022/11/06 02:08:13;;;;;;;1.65;1.42;;;;;;;;;;4977074;28;20109;-22
2022/11/06 02:10:40;;;;;;;1.60;1.48;;;;;;;;;;4976532;28;20045;-22
2022/11/06 02:13:28;;;;;;;1.65;1.40;;;;;;;;;;4976232;28;20058;-23
2022/11/06 02:15:54;;;;;;;2.70;1.45;;;;;;;;;;4966287;28;20042;-22
2022/11/06 02:18:24;;;;;;;2.30;2.00;;;;;;;;;;4976276;28;20030;-22
2022/11/06 02:20:59;;;;;;;1.60;1.50;;;;;;;;;;4976117;28;20110;-22
2022/11/06 02:23:31;;;;;;;1.83;1.55;;;;;;;;;;4976420;28;20031;-24
2022/11/06 02:26:20;;;;;;;2.00;1.88;;;;;;;;;;4959279;28;20030;-23
2022/11/06 02:28:57;;;;;;;2.20;2.00;;;;;;;;;;4976485;28;20035;-27
2022/11/06 02:31:26;;;;;;;2.35;2.03;;;;;;;;;;4976101;28;20038;-22
2022/11/06 02:33:54;;;;;;;2.15;1.73;;;;;;;;;;4958981;28;20458;-22
2022/11/06 02:36:22;;;;;;;1.95;1.85;;;;;;;;;;4976099;28;20089;-22
2022/11/06 02:38:53;;;;;;;2.42;2.00;;;;;;;;;;4975987;28;20110;-22
2022/11/06 02:41:20;;;;;;;2.03;1.58;;;;;;;;;;4976382;28;20409;-24
2022/11/06 02:43:49;;;;;;;2.72;1.70;;;;;;;;;;4976224;28;20027;-22
2022/11/06 02:46:18;;;;;;;1.83;1.73;;;;;;;;;;4976738;28;20038;-22
2022/11/06 02:48:55;;;;;;;3.00;1.80;;;;;;;;;;4975981;28;20030;-22
2022/11/06 02:51:23;;;;;;;1.70;1.60;;;;;;;;;;4976193;28;20038;-22
2022/11/06 02:53:50;;;;;;;2.50;1.85;;;;;;;;;;4975755;28;20458;-22
2022/11/06 02:56:18;;;;;;;2.08;1.85;;;;;;;;;;4975879;28;20081;-22
2022/11/06 02:58:48;;;;;;;1.95;1.58;;;;;;;;;;4959638;28;20077;-23
2022/11/06 03:01:35;;;;;;;2.55;1.65;;;;;;;;;;4976121;28;20381;-22
2022/11/06 03:04:04;;;;;;;2.58;1.92;;;;;;;;;;4975503;28;20042;-23
2022/11/06 03:06:43;;;;;;;2.47;1.63;;;;;;;;;;4975745;28;20462;-23
2022/11/06 03:09:12;;;;;;;1.88;1.35;;;;;;;;;;4975816;28;20082;-24
2022/11/06 03:11:38;;;;;;;1.98;1.42;;;;;;;;;;4975992;28;20085;-22
2022/11/06 03:14:04;;;;;;;2.53;2.00;;;;;;;;;;4975586;28;20042;-22
2022/11/06 03:16:39;;;;;;;2.33;1.60;;;;;;;;;;4975720;28;20027;-23
2022/11/06 03:19:19;;;;;;;1.83;1.73;;;;;;;;;;4975931;28;20046;-22
2022/11/06 03:22:00;;;;;;;2.55;1.75;;;;;;;;;;4975556;28;20085;-22
2022/11/06 03:24:27;;;;;;;3.28;1.80;;;;;;;;;;4976390;28;20019;-24
2022/11/06 03:26:53;;;;;;;2.42;1.73;;;;;;;;;;4975523;28;20039;-22
2022/11/06 03:29:37;;;;;;;2.28;1.77;;;;;;;;;;4975862;28;20031;-23
2022/11/06 03:32:09;;;;;;;2.13;1.88;;;;;;;;;;4976457;28;20114;-23
2022/11/06 03:34:44;;;;;;;1.63;1.52;;;;;;;;;;4979661;28;20158;-23
2022/11/06 03:37:13;;;;;;;1.65;1.40;;;;;;;;;;4979613;28;20019;-23
2022/11/06 03:39:43;;;;;;;1.77;1.60;;;;;;;;;;4979517;28;20409;-22
2022/11/06 03:42:12;;;;;;;1.63;1.50;;;;;;;;;;4979070;28;20029;-22
2022/11/06 03:44:40;;;;;;;1.75;1.65;;;;;;;;;;4979429;28;20510;-22
2022/11/06 03:47:15;;;;;;;2.67;1.90;;;;;;;;;;4979312;28;20399;-22
2022/11/06 03:49:46;;;;;;;3.97;1.55;;;;;;;;;;4979060;28;20023;-22
2022/11/06 03:52:17;;;;;;;2.35;1.45;;;;;;;;;;4979458;28;20034;-23
2022/11/06 03:54:52;;;;;;;2.15;1.70;;;;;;;;;;4979199;28;20023;-22
2022/11/06 03:57:25;;;;;;;1.50;1.40;;;;;;;;;;4979221;28;20106;-22
2022/11/06 03:59:54;;;;;;;1.80;1.70;;;;;;;;;;4979717;28;20098;-22
2022/11/06 04:02:21;;;;;;;1.60;1.50;;;;;;;;;;4962399;28;20045;-22
2022/11/06 04:04:58;;;;;;;2.30;2.08;;;;;;;;;;4978600;28;20046;-22
2022/11/06 04:07:27;;;;;;;1.70;1.60;;;;;;;;;;4978774;28;20374;-22
2022/11/06 04:15:27;;;;;;;2.05;1.85;;;;;;;;;;4978941;28;20049;-22
2022/11/06 04:17:53;;;;;;;2.20;2.00;;;;;;;;;;4978574;28;20390;-24
2022/11/06 04:23:32;;;;;;;1.70;1.60;;;;;;;;;;4978745;28;20054;-24
2022/11/06 04:26:35;;;;;;;3.50;1.77;;;;;;;;;;4956218;28;20054;-21
2022/11/06 04:29:01;;;;;;;1.50;1.40;;;;;;;;;;4978324;28;20058;-23
2022/11/06 04:31:46;;;;;;;1.95;1.75;;;;;;;;;;4978543;28;20031;-25
2022/11/06 04:34:23;;;;;;;2.60;2.05;;;;;;;;;;4978442;28;20042;-22
2022/11/06 04:36:55;;;;;;;2.33;1.90;;;;;;;;;;4978261;28;20366;-22
2022/11/06 04:39:50;;;;;;;1.70;1.60;;;;;;;;;;4978501;28;20023;-22
2022/11/06 04:42:36;;;;;;;3.13;1.90;;;;;;;;;;4965626;28;20118;-22
2022/11/06 04:45:04;;;;;;;2.05;1.70;;;;;;;;;;4976834;28;20093;-22
2022/11/06 04:47:31;;;;;;;1.42;1.33;;;;;;;;;;4977970;28;20035;-22
2022/11/06 04:49:59;;;;;;;2.08;1.67;;;;;;;;;;4977992;28;20034;-22
2022/11/06 04:52:27;;;;;;;1.92;1.73;;;;;;;;;;4978053;28;20071;-22
2022/11/06 04:54:54;;;;;;;1.85;1.67;;;;;;;;;;4978151;28;20031;-22
2022/11/06 04:57:22;;;;;;;1.98;1.85;;;;;;;;;;4978409;28;20094;-22
2022/11/06 04:59:48;;;;;;;2.47;2.28;;;;;;;;;;4977850;28;20027;-22
2022/11/06 05:02:14;;;;;;;3.45;1.75;;;;;;;;;;4978354;28;20023;-23
2022/11/06 05:04:40;;;;;;;3.35;1.48;;;;;;;;;;4977503;28;20058;-24
2022/11/06 05:07:06;;;;;;;1.67;1.58;;;;;;;;;;4977699;28;20035;-22
2022/11/06 05:09:33;;;;;;;1.52;1.42;;;;;;;;;;4977648;28;20034;-27
2022/11/06 05:11:59;;;;;;;2.28;1.95;;;;;;;;;;4977927;28;20110;-23
2022/11/06 05:14:25;;;;;;;2.10;1.90;;;;;;;;;;4977791;28;20103;-22
2022/11/06 05:16:51;;;;;;;1.48;1.38;;;;;;;;;;4978003;28;20050;-22
2022/11/06 05:19:17;;;;;;;2.33;1.83;;;;;;;;;;4960440;28;20442;-22
2022/11/06 05:24:28;;;;;;;1.90;1.77;;;;;;;;;;4977422;28;20045;-22
2022/11/06 05:26:54;;;;;;;2.00;1.40;;;;;;;;;;4977284;28;20030;-23
2022/11/06 05:29:20;;;;;;;2.10;1.90;;;;;;;;;;4977253;28;20038;-22
2022/11/06 05:31:46;;;;;;;1.35;1.25;;;;;;;;;;4977101;28;20095;-22
2022/11/06 05:34:13;;;;;;;1.90;1.70;;;;;;;;;;4977081;28;20117;-22
2022/11/06 05:36:39;;;;;;;1.52;1.42;;;;;;;;;;4977379;28;20102;-23
2022/11/06 05:39:05;;;;;;;1.63;1.52;;;;;;;;;;4977112;28;20085;-23
2022/11/06 05:41:31;;;;;;;4.00;1.60;;;;;;;;;;4977563;28;20026;-23
2022/11/06 05:43:57;;;;;;;2.00;1.80;;;;;;;;;;4976924;28;20027;-22
2022/11/06 05:46:23;;;;;;;2.15;1.92;;;;;;;;;;4977206;28;20362;-22
2022/11/06 05:48:50;;;;;;;2.00;1.88;;;;;;;;;;4976871;28;20031;-24
2022/11/06 05:51:16;;;;;;;2.83;1.70;;;;;;;;;;4976858;28;20142;-22
2022/11/06 05:53:42;;;;;;;1.60;1.50;;;;;;;;;;4976933;28;20029;-22
2022/11/06 05:56:08;;;;;;;1.48;1.38;;;;;;;;;;4976313;28;20466;-22
2022/11/06 05:58:35;;;;;;;1.77;1.67;;;;;;;;;;4976758;28;20058;-22
2022/11/06 06:01:01;;;;;;;2.00;1.80;;;;;;;;;;4959678;28;20035;-23
2022/11/06 06:03:27;;;;;;;2.17;1.70;;;;;;;;;;4976361;28;20051;-22
2022/11/06 06:05:53;;;;;;;1.70;1.50;;;;;;;;;;4960085;28;20026;-22
2022/11/06 06:08:20;;;;;;;2.47;1.77;;;;;;;;;;4959546;28;20037;-22
2022/11/06 06:10:47;;;;;;;1.92;1.50;;;;;;;;;;4976755;28;20030;-22
2022/11/06 06:13:14;;;;;;;2.10;1.88;;;;;;;;;;4976629;28;20041;-22
2022/11/06 06:15:40;;;;;;;1.90;1.70;;;;;;;;;;4976641;28;20097;-26
2022/11/06 06:18:07;;;;;;;2.40;2.08;;;;;;;;;;4976387;28;20118;-22
2022/11/06 06:20:34;;;;;;;1.38;1.27;;;;;;;;;;4976361;28;20050;-22
2022/11/06 06:23:00;;;;;;;1.80;1.48;;;;;;;;;;4976522;28;20169;-22
2022/11/06 06:25:27;;;;;;;2.38;1.73;;;;;;;;;;4976275;28;20050;-22
2022/11/06 06:27:54;;;;;;;1.95;1.75;;;;;;;;;;4976533;28;20041;-23
2022/11/06 06:30:21;;;;;;;2.20;1.60;;;;;;;;;;4976159;28;20129;-22
2022/11/06 06:32:48;;;;;;;2.13;1.73;;;;;;;;;;4976022;28;20019;-23
2022/11/06 06:35:14;;;;;;;3.22;1.80;;;;;;;;;;4976146;28;20169;-25
2022/11/06 06:37:40;;;;;;;1.42;1.33;;;;;;;;;;4959572;28;20027;-22
2022/11/06 06:40:06;;;;;;;3.08;1.63;;;;;;;;;;4976322;28;20070;-22
2022/11/06 06:42:32;;;;;;;1.60;1.50;;;;;;;;;;4975931;28;20039;-24
2022/11/06 06:44:59;;;;;;;1.85;1.73;;;;;;;;;;4976082;28;20027;-24
2022/11/06 06:47:25;;;;;;;2.25;1.60;;;;;;;;;;4976028;28;20065;-24
2022/11/06 06:49:51;;;;;;;1.85;1.70;;;;;;;;;;4976240;28;20423;-22
2022/11/06 06:52:17;;;;;;;2.13;1.45;;;;;;;;;;4976022;28;20049;-22
2022/11/06 06:54:44;;;;;;;2.13;1.60;;;;;;;;;;4976151;28;20122;-22
2022/11/06 06:57:10;;;;;;;1.65;1.42;;;;;;;;;;4975821;28;20030;-23
2022/11/06 06:59:36;;;;;;;2.13;1.80;;;;;;;;;;4975856;28;20023;-22
2022/11/06 07:02:02;;;;;;;1.55;1.45;;;;;;;;;;4975971;28;20019;-24
2022/11/06 07:04:28;;;;;;;1.70;1.33;;;;;;;;;;4975594;28;20470;-22
2022/11/06 07:06:55;;;;;;;1.80;1.70;;;;;;;;;;4976616;28;20410;-21
2022/11/06 07:09:24;;;;;;;2.03;1.92;;;;;;;;;;4979830;28;20454;-24
2022/11/06 07:11:50;;;;;;;1.63;1.52;;;;;;;;;;4979658;28;20050;-22
2022/11/06 07:14:16;;;;;;;1.85;1.70;;;;;;;;;;4979887;28;20358;-21
2022/11/06 07:16:42;;;;;;;1.52;1.42;;;;;;;;;;4979930;28;20035;-23
2022/11/06 07:19:08;;;;;;;2.08;1.73;;;;;;;;;;4979886;28;20354;-22
2022/11/06 07:21:35;;;;;;;3.25;1.73;;;;;;;;;;4980099;28;20023;-23
2022/11/06 07:24:01;;;;;;;2.10;1.60;;;;;;;;;;4979441;28;20034;-23
2022/11/06 07:26:27;;;;;;;1.98;1.77;;;;;;;;;;4979532;28;20033;-22
2022/11/06 07:28:53;;;;;;;2.70;1.40;;;;;;;;;;4979465;28;20450;-23
2022/11/06 07:31:19;;;;;;;1.85;1.70;;;;;;;;;;4979677;28;20031;-21
2022/11/06 07:33:45;;;;;;;2.00;1.80;;;;;;;;;;4979754;28;20106;-21
2022/11/06 07:36:12;;;;;;;1.38;1.27;;;;;;;;;;4979267;28;20037;-21
2022/11/06 07:38:39;;;;;;;1.85;1.73;;;;;;;;;;4979232;28;20497;-22
2022/11/06 07:41:07;;;;;;;2.42;1.52;;;;;;;;;;4979511;28;20366;-21
2022/11/06 07:43:33;;;;;;;1.85;1.75;;;;;;;;;;4979198;28;20081;-21
2022/11/06 07:46:00;;;;;;;1.88;1.55;;;;;;;;;;4979699;28;20113;-22
2022/11/06 07:48:27;;;;;;;2.13;1.88;;;;;;;;;;4979072;28;20097;-22
2022/11/06 07:50:53;;;;;;;1.98;1.80;;;;;;;;;;4979073;28;20031;-21
2022/11/06 07:53:19;;;;;;;2.08;1.90;;;;;;;;;;4979185;28;20042;-22
2022/11/06 07:55:52;;;;;;;2.45;1.50;;;;;;;;;;4979263;28;20037;-22
2022/11/06 07:58:19;;;;;;;1.55;1.33;;;;;;;;;;4979208;28;20114;-21
2022/11/06 08:00:52;;;;;;;2.65;1.70;;;;;;;;;;4978894;28;20455;-21
2022/11/06 08:03:19;;;;;;;1.45;1.35;;;;;;;;;;4978792;28;20054;-21
2022/11/06 08:05:45;;;;;;;1.75;1.63;;;;;;;;;;4979132;28;20081;-21
2022/11/06 08:08:11;;;;;;;1.65;1.52;;;;;;;;;;4978747;28;20093;-21
2022/11/06 08:10:42;;;;;;;1.85;1.67;;;;;;;;;;4978978;28;20023;-21
2022/11/06 08:13:12;;;;;;;1.95;1.60;;;;;;;;;;4978552;28;20120;-21
2022/11/06 08:15:39;;;;;;;2.00;1.88;;;;;;;;;;4978871;28;20358;-21
2022/11/06 08:18:06;;;;;;;1.95;1.60;;;;;;;;;;4978510;28;20105;-22
2022/11/06 08:20:33;;;;;;;1.67;1.58;;;;;;;;;;4978562;28;20350;-23
2022/11/06 08:23:00;;;;;;;2.88;2.17;;;;;;;;;;4978448;28;20037;-22
2022/11/06 08:25:26;;;;;;;1.73;1.55;;;;;;;;;;4978483;28;20046;-22
2022/11/06 08:27:57;;;;;;;1.58;1.48;;;;;;;;;;4978416;28;20447;-21
2022/11/06 08:30:23;;;;;;;2.67;1.90;;;;;;;;;;4978378;28;20044;-21
2022/11/06 08:32:49;;;;;;;1.90;1.73;;;;;;;;;;4978713;28;20027;-22
2022/11/06 08:35:15;;;;;;;2.58;2.05;;;;;;;;;;4978521;28;20034;-21
2022/11/06 08:37:42;;;;;;;1.70;1.60;;;;;;;;;;4978287;28;20062;-22
2022/11/06 08:40:08;;;;;;;2.33;1.60;;;;;;;;;;4978454;28;20366;-23
2022/11/06 08:42:34;;;;;;;1.63;1.52;;;;;;;;;;4978094;28;20077;-21
2022/11/06 08:45:00;;;;;;;2.28;1.33;;;;;;;;;;4978369;28;20114;-21
2022/11/06 08:47:26;;;;;;;2.88;1.40;;;;;;;;;;4978112;28;20053;-23
2022/11/06 08:49:54;;;;;;;2.63;1.67;;;;;;;;;;4978038;28;20086;-22
2022/11/06 08:52:21;;;;;;;1.65;1.52;;;;;;;;;;4960855;28;20093;-22
2022/11/06 08:54:47;;;;;;;2.15;1.73;;;;;;;;;;4978205;28;20019;-22
2022/11/06 08:57:13;;;;;;;3.20;1.83;;;;;;;;;;4977947;28;20121;-22
2022/11/06 08:59:39;;;;;;;1.85;1.67;;;;;;;;;;4978110;28;20023;-22
2022/11/06 09:02:05;;;;;;;1.88;1.70;;;;;;;;;;4977978;28;20336;-21
2022/11/06 09:04:31;;;;;;;2.08;1.70;;;;;;;;;;4957327;29;20046;-22
2022/11/06 09:06:58;;;;;;;2.25;1.83;;;;;;;;;;4958416;29;20031;-22
2022/11/06 09:09:30;;;;;;;1.95;1.77;;;;;;;;;;4958323;29;20051;-21
2022/11/06 09:11:57;;;;;;;1.73;1.60;;;;;;;;;;4958525;28;20031;-22
2022/11/06 09:14:24;;;;;;;2.10;1.95;;;;;;;;;;4957262;29;20042;-21
2022/11/06 09:16:50;;;;;;;1.60;1.48;;;;;;;;;;4958517;29;20031;-22
2022/11/06 09:19:16;;;;;;;1.77;1.60;;;;;;;;;;4958435;29;20110;-22
2022/11/06 09:21:42;;;;;;;2.83;2.00;;;;;;;;;;4958080;29;20039;-22
2022/11/06 09:24:08;;;;;;;2.70;2.50;;;;;;;;;;4957913;28;20459;-21
2022/11/06 09:26:34;;;;;;;2.53;1.60;;;;;;;;;;4958050;29;20031;-22
2022/11/06 09:29:01;;;;;;;2.60;1.85;;;;;;;;;;4957842;28;20042;-21
2022/11/06 09:31:27;;;;;;;1.80;1.70;;;;;;;;;;4957621;29;20027;-22
2022/11/06 09:33:54;;;;;;;1.60;1.50;;;;;;;;;;4958047;28;20027;-21
2022/11/06 09:36:20;;;;;;;1.73;1.63;;;;;;;;;;4956862;29;20378;-21
2022/11/06 09:38:47;;;;;;;2.15;1.75;;;;;;;;;;4957851;29;20027;-24
2022/11/06 09:41:45;;;;;;;3.17;1.83;;;;;;;;;;4958311;29;20407;-21
2022/11/06 09:44:12;;;;;;;1.85;1.42;;;;;;;;;;4936421;28;20039;-22
2022/11/06 09:46:47;;;;;;;1.73;1.63;;;;;;;;;;4957986;29;20053;-22
2022/11/06 09:49:26;;;;;;;2.55;2.35;;;;;;;;;;4957924;29;20415;-21
2022/11/06 09:51:52;;;;;;;3.50;1.63;;;;;;;;;;4956540;28;20039;-22
2022/11/06 09:54:18;;;;;;;1.45;1.35;;;;;;;;;;4957345;29;20094;-23
2022/11/06 09:56:45;;;;;;;2.65;1.90;;;;;;;;;;4957745;29;20038;-22
2022/11/06 09:59:14;;;;;;;1.70;1.60;;;;;;;;;;4957748;29;20063;-22
2022/11/06 10:02:01;;;;;;;2.10;1.85;;;;;;;;;;4957637;29;20106;-22
2022/11/06 10:04:43;;;;;;;1.67;1.58;;;;;;;;;;4969875;28;20046;-21
2022/11/06 10:07:26;;;;;;;2.22;1.52;;;;;;;;;;4977190;28;20035;-22
2022/11/06 10:09:52;;;;;;;2.10;1.73;;;;;;;;;;4976520;28;20038;-21
2022/11/06 10:12:18;;;;;;;2.38;2.13;;;;;;;;;;4976337;28;20031;-23
2022/11/06 10:15:03;;;;;;;2.03;1.42;;;;;;;;;;4976444;28;20023;-21
2022/11/06 10:17:46;;;;;;;3.22;1.85;;;;;;;;;;4976735;28;20019;-21
2022/11/06 10:20:18;;;;;;;1.98;1.50;;;;;;;;;;4976654;28;20370;-24
2022/11/06 10:23:04;;;;;;;1.20;1.10;;;;;;;;;;4976506;28;20030;-23
2022/11/06 10:25:51;;;;;;;1.85;1.75;;;;;;;;;;4976230;28;20038;-22
2022/11/06 10:28:33;;;;;;;1.67;1.58;;;;;;;;;;4959178;28;20121;-21
2022/11/06 10:31:09;;;;;;;2.53;1.60;;;;;;;;;;4976234;28;20035;-21
2022/11/06 10:33:54;;;;;;;2.35;1.65;;;;;;;;;;4976030;28;20117;-21
2022/11/06 10:36:22;;;;;;;2.10;1.92;;;;;;;;;;4976192;28;20105;-22
2022/11/06 10:38:50;;;;;;;2.20;1.77;;;;;;;;;;4976395;28;20026;-21
2022/11/06 10:41:18;;;;;;;1.83;1.60;;;;;;;;;;4976115;28;20111;-21
2022/11/06 10:43:53;;;;;;;1.98;1.60;;;;;;;;;;4976230;28;20046;-23
2022/11/06 10:46:19;;;;;;;1.77;1.67;;;;;;;;;;4976248;28;20109;-21
2022/11/06 10:48:55;;;;;;;1.95;1.73;;;;;;;;;;4976276;28;20027;-21
2022/11/06 10:51:40;;;;;;;2.05;1.77;;;;;;;;;;4976267;28;20368;-23
2022/11/06 10:54:21;;;;;;;2.33;2.05;;;;;;;;;;4958736;28;20057;-22
2022/11/06 10:57:00;;;;;;;1.58;1.48;;;;;;;;;;4958890;28;20139;-21
2022/11/06 10:59:26;;;;;;;1.58;1.48;;;;;;;;;;4976670;28;20049;-22
2022/11/06 11:01:53;;;;;;;2.20;1.90;;;;;;;;;;4976335;28;20023;-21
2022/11/06 11:04:19;;;;;;;1.92;1.70;;;;;;;;;;4975662;28;20051;-21
2022/11/06 11:06:45;;;;;;;1.90;1.80;;;;;;;;;;4976354;28;20085;-21
2022/11/06 11:09:32;;;;;;;2.35;1.90;;;;;;;;;;4976057;28;20031;-22
2022/11/06 11:11:58;;;;;;;1.65;1.50;;;;;;;;;;4975673;28;20031;-22
2022/11/06 11:14:26;;;;;;;2.38;1.77;;;;;;;;;;4975613;28;20089;-21
2022/11/06 11:16:52;;;;;;;1.80;1.70;;;;;;;;;;4975660;28;20031;-22
2022/11/06 11:19:26;;;;;;;2.95;1.60;;;;;;;;;;4975734;28;20098;-21
2022/11/06 11:21:54;;;;;;;2.00;1.63;;;;;;;;;;4975868;28;20354;-22
2022/11/06 11:24:20;;;;;;;2.45;1.70;;;;;;;;;;4975623;28;20069;-21
2022/11/06 11:26:47;;;;;;;2.15;1.48;;;;;;;;;;4975589;28;20447;-22
2022/11/06 11:29:15;;;;;;;1.75;1.55;;;;;;;;;;4975617;28;20106;-22
2022/11/06 11:31:44;;;;;;;2.50;1.70;;;;;;;;;;4975616;28;20038;-21
2022/11/06 11:34:18;;;;;;;1.77;1.50;;;;;;;;;;4975504;28;20039;-21
2022/11/06 11:36:52;;;;;;;2.05;1.85;;;;;;;;;;4975800;28;20355;-22
2022/11/06 11:39:20;;;;;;;2.80;2.60;;;;;;;;;;4975575;28;20053;-23
2022/11/06 11:41:46;;;;;;;2.13;1.73;;;;;;;;;;4975407;28;20041;-23
2022/11/06 11:44:12;;;;;;;2.70;1.73;;;;;;;;;;4975409;28;20023;-21
2022/11/06 11:46:48;;;;;;;2.13;1.63;;;;;;;;;;4975456;28;20034;-21
2022/11/06 11:49:41;;;;;;;3.15;2.20;;;;;;;;;;4975451;28;20027;-22
2022/11/06 11:52:12;;;;;;;1.70;1.60;;;;;;;;;;4973000;28;20066;-21
2022/11/06 11:54:38;;;;;;;;;;;;;;;;;;4961970;28;20037;-22
2022/11/06 11:57:06;;;;;;;2.13;2.03;;;;;;;;;;4979258;28;19917;-21
2022/11/06 11:59:42;;;;;;;2.55;2.10;;;;;;;;;;4978954;28;20049;-22
2022/11/06 12:02:18;;;;;;;1.38;1.27;;;;;;;;;;4979380;28;20026;-22
2022/11/06 12:04:46;;;;;;;1.88;1.77;;;;;;;;;;4978756;28;20058;-22
2022/11/06 12:07:22;;;;;;;1.95;1.73;;;;;;;;;;4979034;28;20034;-22
2022/11/06 12:09:48;;;;;;;2.35;1.30;;;;;;;;;;4978795;28;20389;-22
2022/11/06 12:12:34;;;;;;;3.15;1.55;;;;;;;;;;4978545;28;20126;-22
2022/11/06 12:15:07;;;;;;;2.28;1.90;;;;;;;;;;4978598;28;20109;-21
2022/11/06 12:17:34;;;;;;;1.80;1.70;;;;;;;;;;4978855;28;20115;-22
2022/11/06 12:20:01;;;;;;;1.80;1.67;;;;;;;;;;4978540;28;20046;-24
2022/11/06 12:22:31;;;;;;;1.77;1.67;;;;;;;;;;4978695;28;20033;-22
2022/11/06 12:25:13;;;;;;;1.70;1.58;;;;;;;;;;4978863;28;20027;-22
2022/11/06 12:27:42;;;;;;;1.70;1.60;;;;;;;;;;4978416;28;20037;-21
2022/11/06 12:30:12;;;;;;;2.75;2.55;;;;;;;;;;4978417;28;20045;-23
2022/11/06 12:32:41;;;;;;;1.90;1.55;;;;;;;;;;4978191;28;20038;-21
2022/11/06 12:35:26;;;;;;;1.63;1.50;;;;;;;;;;4978598;28;20039;-22
2022/11/06 12:37:52;;;;;;;1.92;1.75;;;;;;;;;;4978255;28;20335;-22
2022/11/06 12:40:22;;;;;;;2.28;1.95;;;;;;;;;;4978212;28;20102;-24
2022/11/06 12:42:54;;;;;;;1.58;1.48;;;;;;;;;;4978166;28;20031;-21
2022/11/06 12:45:24;;;;;;;1.60;1.50;;;;;;;;;;4978393;28;20477;-22
2022/11/06 12:47:56;;;;;;;1.73;1.60;;;;;;;;;;4978100;28;20035;-22
2022/11/06 12:50:26;;;;;;;1.90;1.80;;;;;;;;;;4978346;28;20045;-21
2022/11/06 12:52:54;;;;;;;2.15;1.75;;;;;;;;;;4977806;28;20043;-21
2022/11/06 12:55:31;;;;;;;2.03;1.90;;;;;;;;;;4977892;28;20026;-21
2022/11/06 12:58:16;;;;;;;2.13;1.80;;;;;;;;;;4978470;28;20442;-22
2022/11/06 13:01:04;;;;;;;2.58;2.22;;;;;;;;;;4978172;28;20378;-22
2022/11/06 13:03:45;;;;;;;2.03;1.83;;;;;;;;;;4977518;28;20130;-23
2022/11/06 13:06:11;;;;;;;2.08;1.98;;;;;;;;;;4976782;28;20035;-22
2022/11/06 13:08:56;;;;;;;1.60;1.50;;;;;;;;;;4977747;28;20101;-21
2022/11/06 13:11:25;;;;;;;2.38;1.73;;;;;;;;;;4977645;28;20041;-22
2022/11/06 13:13:51;;;;;;;2.08;1.83;;;;;;;;;;4977435;28;20038;-22
2022/11/06 13:16:23;;;;;;;2.45;1.83;;;;;;;;;;4977835;28;20031;-21
2022/11/06 13:18:55;;;;;;;2.30;1.58;;;;;;;;;;4977776;28;20106;-23
2022/11/06 13:21:27;;;;;;;3.05;2.50;;;;;;;;;;4977704;28;20031;-22
2022/11/06 13:24:02;;;;;;;2.15;1.95;;;;;;;;;;4977369;28;20089;-23
2022/11/06 13:26:39;;;;;;;2.05;1.73;;;;;;;;;;4977359;28;20051;-21
2022/11/06 13:29:05;;;;;;;2.13;1.95;;;;;;;;;;4977612;28;20091;-22
2022/11/06 13:31:37;;;;;;;2.03;1.60;;;;;;;;;;4977796;28;20434;-22
2022/11/06 13:34:05;;;;;;;2.00;1.50;;;;;;;;;;4977876;28;20113;-22
2022/11/06 13:36:31;;;;;;;2.00;1.77;;;;;;;;;;4977207;28;20490;-23
2022/11/06 13:39:16;;;;;;;1.90;1.70;;;;;;;;;;4977127;28;20031;-24
2022/11/06 13:41:42;;;;;;;2.33;1.58;;;;;;;;;;4977110;28;20023;-22
2022/11/06 13:44:15;;;;;;;2.35;2.15;;;;;;;;;;4976953;28;20110;-22
2022/11/06 13:46:48;;;;;;;2.53;1.50;;;;;;;;;;4977248;28;20031;-23
2022/11/06 13:49:20;;;;;;;2.08;1.88;;;;;;;;;;4976887;28;20037;-24
2022/11/06 13:52:03;;;;;;;2.97;1.63;;;;;;;;;;4977115;28;20110;-22
2022/11/06 13:54:35;;;;;;;2.15;1.95;;;;;;;;;;4959760;28;20033;-22
2022/11/06 13:57:15;;;;;;;2.15;2.05;;;;;;;;;;4977072;28;20371;-21
2022/11/06 14:00:01;;;;;;;1.98;1.88;;;;;;;;;;4959745;28;20033;-22
2022/11/06 14:02:33;;;;;;;2.03;1.70;;;;;;;;;;4976615;28;20027;-21
2022/11/06 14:05:09;;;;;;;1.98;1.80;;;;;;;;;;4976493;28;20113;-21
2022/11/06 14:07:36;;;;;;;2.28;1.85;;;;;;;;;;4976832;28;20091;-22
2022/11/06 14:10:03;;;;;;;2.00;1.83;;;;;;;;;;4976591;28;20470;-22
2022/11/06 14:12:29;;;;;;;2.28;1.80;;;;;;;;;;4976661;28;20027;-22
2022/11/06 14:15:13;;;;;;;1.88;1.48;;;;;;;;;;4976810;28;20089;-21
2022/11/06 14:17:40;;;;;;;2.00;1.80;;;;;;;;;;4976758;28;20106;-21
2022/11/06 14:20:26;;;;;;;4.65;1.98;;;;;;;;;;4976968;28;20019;-22
2022/11/06 14:22:52;;;;;;;1.55;1.45;;;;;;;;;;4976488;28;20033;-21
2022/11/06 14:25:27;;;;;;;1.70;1.60;;;;;;;;;;4976356;28;20034;-21
2022/11/06 14:27:53;;;;;;;1.88;1.52;;;;;;;;;;4976305;28;20058;-21
2022/11/06 14:30:26;;;;;;;2.38;1.70;;;;;;;;;;4976259;28;20103;-21
2022/11/06 14:32:56;;;;;;;1.73;1.63;;;;;;;;;;4976059;28;20030;-23
2022/11/06 14:35:28;;;;;;;2.78;1.95;;;;;;;;;;4976171;28;20027;-22
2022/11/06 14:38:09;;;;;;;1.67;1.52;;;;;;;;;;4976467;28;20054;-24
2022/11/06 14:40:36;;;;;;;1.92;1.60;;;;;;;;;;4976664;28;20030;-22
2022/11/06 14:43:19;;;;;;;2.20;2.00;;;;;;;;;;4976015;28;20466;-22
2022/11/06 14:45:50;;;;;;;2.20;1.98;;;;;;;;;;4976592;28;20031;-22
2022/11/06 14:48:25;;;;;;;1.70;1.60;;;;;;;;;;4976052;28;20454;-22
2022/11/06 14:50:51;;;;;;;1.90;1.70;;;;;;;;;;4976023;28;20038;-22
2022/11/06 14:53:19;;;;;;;2.25;1.80;;;;;;;;;;4975856;28;20034;-24
2022/11/06 14:55:55;;;;;;;1.92;1.73;;;;;;;;;;4976220;28;20446;-23
2022/11/06 14:58:24;;;;;;;2.30;1.88;;;;;;;;;;4975920;28;20026;-22
2022/11/06 15:00:58;;;;;;;2.03;1.73;;;;;;;;;;4975899;28;20379;-21
2022/11/06 15:03:26;;;;;;;2.00;1.77;;;;;;;;;;4975809;28;20378;-22
2022/11/06 15:05:56;;;;;;;2.03;1.92;;;;;;;;;;4975785;28;20039;-21
2022/11/06 15:08:41;;;;;;;2.00;1.80;;;;;;;;;;4976148;28;20114;-23
2022/11/06 15:11:08;;;;;;;3.33;1.85;;;;;;;;;;4976100;28;20292;-22
2022/11/06 15:13:34;;;;;;;2.30;2.10;;;;;;;;;;4975563;28;20038;-21